createdAt,value
2023-05-14T00:00:29.448Z,13.71
2023-05-14T00:01:29.446Z,13.71
2023-05-14T00:02:29.546Z,13.68
2023-05-14T00:03:29.501Z,13.67
2023-05-14T00:04:29.432Z,13.68
2023-05-14T00:05:29.486Z,13.67
2023-05-14T00:06:29.382Z,13.64
2023-05-14T00:07:29.358Z,13.62
2023-05-14T00:08:29.400Z,13.64
2023-05-14T00:09:29.378Z,13.62
2023-05-14T00:10:29.328Z,13.60
2023-05-14T00:11:29.394Z,13.60
2023-05-14T00:12:29.348Z,13.60
2023-05-14T00:13:29.307Z,13.58
2023-05-14T00:14:29.336Z,13.58
2023-05-14T00:15:29.290Z,13.55
2023-05-14T00:16:29.513Z,13.55
2023-05-14T00:17:29.432Z,13.57
2023-05-14T00:18:29.251Z,13.54
2023-05-14T00:19:29.215Z,13.52
2023-05-14T00:20:29.282Z,13.52
2023-05-14T00:21:29.262Z,13.50
2023-05-14T00:22:29.188Z,13.49
2023-05-14T00:23:29.192Z,13.49
2023-05-14T00:24:29.260Z,13.46
2023-05-14T00:25:29.183Z,13.45
2023-05-14T00:26:29.233Z,13.42
2023-05-14T00:27:29.236Z,13.40
2023-05-14T00:28:29.200Z,13.40
2023-05-14T00:29:29.136Z,13.37
2023-05-14T00:30:29.168Z,13.37
2023-05-14T00:31:29.162Z,13.36
2023-05-14T00:32:29.190Z,13.33
2023-05-14T00:33:29.090Z,13.33
2023-05-14T00:34:29.095Z,13.33
2023-05-14T00:35:29.120Z,13.28
2023-05-14T00:36:29.100Z,13.28
2023-05-14T00:37:29.093Z,13.26
2023-05-14T00:38:29.056Z,13.26
2023-05-14T00:39:29.247Z,13.24
2023-05-14T00:40:29.082Z,13.24
2023-05-14T00:41:29.040Z,13.23
2023-05-14T00:42:29.350Z,13.23
2023-05-14T00:43:29.342Z,13.20
2023-05-14T00:44:28.995Z,13.21
2023-05-14T00:45:29.037Z,13.21
2023-05-14T00:46:29.155Z,13.19
2023-05-14T00:47:29.515Z,13.17
2023-05-14T00:48:28.964Z,13.16
2023-05-14T00:49:28.948Z,13.12
2023-05-14T00:50:29.792Z,13.09
2023-05-14T00:51:29.024Z,13.08
2023-05-14T00:52:29.070Z,13.08
2023-05-14T00:53:29.549Z,13.05
2023-05-14T00:54:29.376Z,13.03
2023-05-14T00:55:28.906Z,13.03
2023-05-14T00:56:29.078Z,13.03
2023-05-14T00:57:28.817Z,13.01
2023-05-14T00:58:29.374Z,12.99
2023-05-14T00:59:29.092Z,12.95
2023-05-14T01:00:28.962Z,12.93
2023-05-14T01:01:28.996Z,12.93
2023-05-14T01:02:29.053Z,12.93
2023-05-14T01:03:29.313Z,12.88
2023-05-14T01:04:28.874Z,12.90
2023-05-14T01:05:28.776Z,12.88
2023-05-14T01:06:28.793Z,12.86
2023-05-14T01:07:29.061Z,12.87
2023-05-14T01:08:28.713Z,12.87
2023-05-14T01:09:28.733Z,12.84
2023-05-14T01:10:28.845Z,12.81
2023-05-14T01:11:28.710Z,12.83
2023-05-14T01:12:28.728Z,12.83
2023-05-14T01:13:28.830Z,12.81
2023-05-14T01:14:28.923Z,12.80
2023-05-14T01:15:28.646Z,12.80
2023-05-14T01:16:28.689Z,12.78
2023-05-14T01:17:28.724Z,12.76
2023-05-14T01:18:28.662Z,12.73
2023-05-14T01:19:28.607Z,12.73
2023-05-14T01:20:28.650Z,12.72
2023-05-14T01:21:28.593Z,12.70
2023-05-14T01:22:28.588Z,12.72
2023-05-14T01:23:28.626Z,12.69
2023-05-14T01:24:28.587Z,12.69
2023-05-14T01:25:28.535Z,12.69
2023-05-14T01:26:28.539Z,12.66
2023-05-14T01:27:28.547Z,12.63
2023-05-14T01:28:28.532Z,12.65
2023-05-14T01:29:28.520Z,12.62
2023-05-14T01:30:28.551Z,12.63
2023-05-14T01:31:28.644Z,12.61
2023-05-14T01:32:28.559Z,12.62
2023-05-14T01:33:28.490Z,12.57
2023-05-14T01:34:28.458Z,12.57
2023-05-14T01:35:28.450Z,12.54
2023-05-14T01:36:28.401Z,12.53
2023-05-14T01:37:28.410Z,12.51
2023-05-14T01:38:28.409Z,12.53
2023-05-14T01:39:28.409Z,12.50
2023-05-14T01:40:28.407Z,12.51
2023-05-14T01:41:28.375Z,12.48
2023-05-14T01:42:28.420Z,12.48
2023-05-14T01:43:28.444Z,12.44
2023-05-14T01:44:28.359Z,12.44
2023-05-14T01:45:28.322Z,12.40
2023-05-14T01:46:28.363Z,12.43
2023-05-14T01:47:28.320Z,12.37
2023-05-14T01:48:28.313Z,12.37
2023-05-14T01:49:28.337Z,12.36
2023-05-14T01:50:28.280Z,12.36
2023-05-14T01:51:28.283Z,12.36
2023-05-14T01:52:28.265Z,12.36
2023-05-14T01:53:28.255Z,12.35
2023-05-14T01:54:28.267Z,12.35
2023-05-14T01:55:28.256Z,12.30
2023-05-14T01:56:28.884Z,12.30
2023-05-14T01:57:28.257Z,12.33
2023-05-14T01:58:28.189Z,12.29
2023-05-14T01:59:28.198Z,12.30
2023-05-14T02:00:28.177Z,12.28
2023-05-14T02:01:28.195Z,12.29
2023-05-14T02:02:28.235Z,12.28
2023-05-14T02:03:28.117Z,12.25
2023-05-14T02:04:28.157Z,12.26
2023-05-14T02:05:28.073Z,12.26
2023-05-14T02:06:28.064Z,12.26
2023-05-14T02:07:28.059Z,12.21
2023-05-14T02:08:28.216Z,12.23
2023-05-14T02:09:28.077Z,12.21
2023-05-14T02:10:28.080Z,12.20
2023-05-14T02:11:28.040Z,12.18
2023-05-14T02:12:28.051Z,12.17
2023-05-14T02:13:28.054Z,12.17
2023-05-14T02:14:28.006Z,12.15
2023-05-14T02:15:28.002Z,12.12
2023-05-14T02:16:28.079Z,12.15
2023-05-14T02:17:28.069Z,12.12
2023-05-14T02:18:28.051Z,12.12
2023-05-14T02:19:27.974Z,12.10
2023-05-14T02:20:27.950Z,12.08
2023-05-14T02:21:27.909Z,12.10
2023-05-14T02:22:27.936Z,12.07
2023-05-14T02:23:37.829Z,12.03
2023-05-14T02:24:29.119Z,12.03
2023-05-14T02:25:27.942Z,12.02
2023-05-14T02:26:27.942Z,11.99
2023-05-14T02:27:27.981Z,11.99
2023-05-14T02:28:27.892Z,11.99
2023-05-14T02:29:27.864Z,11.97
2023-05-14T02:30:27.846Z,12.00
2023-05-14T02:31:27.870Z,11.99
2023-05-14T02:32:27.931Z,11.97
2023-05-14T02:33:27.896Z,11.95
2023-05-14T02:34:27.824Z,11.99
2023-05-14T02:35:27.818Z,11.93
2023-05-14T02:36:27.770Z,11.96
2023-05-14T02:37:27.770Z,11.93
2023-05-14T02:38:27.772Z,11.91
2023-05-14T02:39:27.779Z,11.89
2023-05-14T02:40:27.751Z,11.89
2023-05-14T02:41:27.727Z,11.89
2023-05-14T02:42:27.736Z,11.88
2023-05-14T02:43:27.691Z,11.86
2023-05-14T02:44:27.670Z,11.89
2023-05-14T02:45:27.661Z,11.88
2023-05-14T02:46:27.743Z,11.85
2023-05-14T02:47:27.864Z,11.86
2023-05-14T02:48:27.684Z,11.85
2023-05-14T02:49:27.641Z,11.83
2023-05-14T02:50:27.651Z,11.85
2023-05-14T02:51:27.667Z,11.83
2023-05-14T02:52:27.634Z,11.81
2023-05-14T02:53:27.608Z,11.81
2023-05-14T02:54:27.610Z,11.83
2023-05-14T02:55:27.577Z,11.78
2023-05-14T02:56:27.602Z,11.77
2023-05-14T02:57:27.564Z,11.77
2023-05-14T02:58:28.501Z,11.77
2023-05-14T02:59:27.563Z,11.76
2023-05-14T03:00:27.551Z,11.77
2023-05-14T03:01:27.623Z,11.78
2023-05-14T03:02:27.631Z,11.77
2023-05-14T03:03:27.566Z,11.74
2023-05-14T03:04:27.496Z,11.76
2023-05-14T03:05:27.481Z,11.74
2023-05-14T03:06:27.502Z,11.73
2023-05-14T03:07:27.473Z,11.71
2023-05-14T03:08:27.499Z,11.73
2023-05-14T03:09:27.491Z,11.71
2023-05-14T03:10:27.451Z,11.73
2023-05-14T03:11:27.434Z,11.70
2023-05-14T03:12:27.442Z,11.70
2023-05-14T03:13:27.432Z,11.65
2023-05-14T03:14:27.428Z,11.67
2023-05-14T03:15:27.389Z,11.65
2023-05-14T03:16:27.428Z,11.67
2023-05-14T03:17:27.344Z,11.63
2023-05-14T03:18:27.368Z,11.62
2023-05-14T03:19:27.334Z,11.62
2023-05-14T03:20:27.321Z,11.63
2023-05-14T03:21:27.310Z,11.63
2023-05-14T03:22:27.344Z,11.62
2023-05-14T03:23:27.322Z,11.59
2023-05-14T03:24:27.506Z,11.62
2023-05-14T03:25:27.276Z,11.60
2023-05-14T03:26:27.276Z,11.60
2023-05-14T03:27:27.345Z,11.60
2023-05-14T03:28:27.226Z,11.62
2023-05-14T03:29:27.234Z,11.60
2023-05-14T03:30:27.288Z,11.62
2023-05-14T03:31:27.317Z,11.59
2023-05-14T03:32:27.264Z,11.62
2023-05-14T03:33:27.155Z,11.62
2023-05-14T03:34:27.222Z,11.60
2023-05-14T03:35:27.163Z,11.60
2023-05-14T03:36:27.149Z,11.63
2023-05-14T03:37:27.117Z,11.60
2023-05-14T03:38:27.132Z,11.62
2023-05-14T03:39:27.118Z,11.62
2023-05-14T03:40:27.117Z,11.63
2023-05-14T03:41:27.123Z,11.63
2023-05-14T03:42:27.131Z,11.65
2023-05-14T03:43:27.307Z,11.63
2023-05-14T03:44:27.057Z,11.67
2023-05-14T03:45:27.132Z,11.65
2023-05-14T03:46:28.117Z,11.65
2023-05-14T03:47:27.064Z,11.65
2023-05-14T03:48:27.148Z,11.67
2023-05-14T03:49:27.036Z,11.68
2023-05-14T03:50:27.082Z,11.70
2023-05-14T03:51:26.999Z,11.67
2023-05-14T03:52:27.108Z,11.70
2023-05-14T03:53:26.994Z,11.68
2023-05-14T03:54:27.006Z,11.68
2023-05-14T03:55:27.063Z,11.68
2023-05-14T03:56:27.023Z,11.70
2023-05-14T03:57:26.947Z,11.67
2023-05-14T03:58:26.975Z,11.70
2023-05-14T03:59:27.070Z,11.68
2023-05-14T04:00:27.073Z,11.70
2023-05-14T04:01:26.969Z,11.70
2023-05-14T04:02:26.994Z,11.70
2023-05-14T04:03:26.957Z,11.70
2023-05-14T04:04:26.971Z,11.70
2023-05-14T04:05:26.827Z,11.71
2023-05-14T04:06:26.834Z,11.71
2023-05-14T04:07:26.833Z,11.73
2023-05-14T04:08:26.826Z,11.73
2023-05-14T04:09:26.792Z,11.74
2023-05-14T04:10:26.786Z,11.77
2023-05-14T04:11:26.829Z,11.76
2023-05-14T04:12:26.788Z,11.78
2023-05-14T04:13:26.748Z,11.78
2023-05-14T04:14:26.768Z,11.81
2023-05-14T04:15:26.795Z,11.83
2023-05-14T04:16:26.770Z,11.86
2023-05-14T04:17:26.759Z,11.88
2023-05-14T04:18:26.742Z,11.91
2023-05-14T04:19:26.734Z,11.95
2023-05-14T04:20:26.679Z,11.99
2023-05-14T04:21:26.684Z,12.00
2023-05-14T04:22:26.690Z,12.07
2023-05-14T04:23:26.684Z,12.07
2023-05-14T04:24:26.617Z,12.10
2023-05-14T04:25:26.678Z,12.11
2023-05-14T04:26:26.745Z,12.12
2023-05-14T04:27:26.605Z,12.17
2023-05-14T04:28:26.597Z,12.20
2023-05-14T04:29:26.591Z,12.23
2023-05-14T04:30:26.590Z,12.28
2023-05-14T04:31:26.572Z,12.32
2023-05-14T04:32:26.592Z,12.36
2023-05-14T04:33:26.545Z,12.36
2023-05-14T04:34:26.548Z,12.43
2023-05-14T04:35:26.561Z,12.45
2023-05-14T04:36:26.505Z,12.48
2023-05-14T04:37:26.499Z,12.50
2023-05-14T04:38:26.486Z,12.51
2023-05-14T04:39:26.478Z,12.54
2023-05-14T04:40:26.854Z,12.62
2023-05-14T04:41:26.458Z,12.62
2023-05-14T04:42:26.515Z,12.62
2023-05-14T04:43:26.430Z,12.66
2023-05-14T04:44:26.419Z,12.65
2023-05-14T04:45:26.434Z,12.66
2023-05-14T04:46:26.457Z,12.65
2023-05-14T04:47:26.719Z,12.62
2023-05-14T04:48:26.400Z,12.66
2023-05-14T04:49:26.373Z,12.68
2023-05-14T04:50:26.476Z,12.69
2023-05-14T04:51:26.342Z,12.70
2023-05-14T04:52:26.343Z,12.72
2023-05-14T04:53:26.346Z,12.73
2023-05-14T04:54:26.321Z,12.69
2023-05-14T04:55:26.316Z,12.68
2023-05-14T04:56:26.298Z,12.68
2023-05-14T04:57:26.292Z,12.72
2023-05-14T04:58:26.319Z,12.73
2023-05-14T04:59:26.282Z,12.70
2023-05-14T05:00:26.451Z,12.75
2023-05-14T05:01:26.235Z,12.76
2023-05-14T05:02:26.313Z,12.76
2023-05-14T05:03:26.325Z,12.76
2023-05-14T05:04:26.214Z,12.78
2023-05-14T05:05:26.201Z,12.75
2023-05-14T05:06:26.174Z,12.80
2023-05-14T05:07:26.198Z,12.78
2023-05-14T05:08:26.158Z,12.81
2023-05-14T05:09:26.157Z,12.81
2023-05-14T05:10:26.433Z,12.83
2023-05-14T05:11:26.155Z,12.83
2023-05-14T05:12:26.146Z,12.83
2023-05-14T05:13:26.110Z,12.86
2023-05-14T05:14:26.094Z,12.90
2023-05-14T05:15:26.769Z,12.88
2023-05-14T05:16:26.173Z,12.91
2023-05-14T05:17:26.157Z,12.91
2023-05-14T05:18:26.498Z,12.94
2023-05-14T05:19:35.613Z,12.94
2023-05-14T05:20:27.056Z,12.98
2023-05-14T05:21:26.092Z,12.99
2023-05-14T05:22:26.066Z,13.01
2023-05-14T05:23:26.028Z,13.06
2023-05-14T05:24:26.020Z,13.11
2023-05-14T05:25:25.990Z,13.16
2023-05-14T05:26:25.980Z,13.19
2023-05-14T05:27:25.964Z,13.19
2023-05-14T05:28:25.943Z,13.23
2023-05-14T05:29:25.910Z,13.28
2023-05-14T05:30:26.060Z,13.36
2023-05-14T05:31:26.012Z,13.40
2023-05-14T05:32:26.020Z,13.54
2023-05-14T05:33:25.931Z,13.65
2023-05-14T05:34:25.916Z,13.76
2023-05-14T05:35:25.904Z,13.85
2023-05-14T05:36:25.896Z,13.93
2023-05-14T05:37:25.884Z,13.98
2023-05-14T05:38:25.838Z,14.05
2023-05-14T05:39:25.839Z,14.16
2023-05-14T05:40:25.929Z,14.25
2023-05-14T05:41:25.835Z,14.37
2023-05-14T05:42:25.782Z,14.53
2023-05-14T05:43:25.776Z,14.70
2023-05-14T05:44:25.835Z,14.85
2023-05-14T05:45:25.777Z,14.97
2023-05-14T05:46:25.848Z,15.22
2023-05-14T05:47:26.142Z,15.44
2023-05-14T05:48:25.776Z,15.73
2023-05-14T05:49:26.600Z,15.99
2023-05-14T05:50:25.875Z,16.26
2023-05-14T05:51:25.721Z,16.50
2023-05-14T05:52:25.760Z,16.73
2023-05-14T05:53:25.975Z,16.89
2023-05-14T05:54:25.740Z,17.07
2023-05-14T05:55:25.751Z,17.27
2023-05-14T05:56:25.661Z,17.49
2023-05-14T05:57:26.385Z,17.63
2023-05-14T05:58:25.626Z,17.76
2023-05-14T05:59:25.700Z,17.84
2023-05-14T06:00:25.900Z,18.00
2023-05-14T06:01:25.879Z,18.09
2023-05-14T06:02:25.747Z,18.21
2023-05-14T06:03:25.747Z,18.28
2023-05-14T06:04:25.712Z,18.34
2023-05-14T06:05:25.683Z,18.42
2023-05-14T06:06:26.020Z,18.46
2023-05-14T06:07:25.570Z,18.49
2023-05-14T06:08:25.585Z,18.57
2023-05-14T06:09:25.816Z,18.67
2023-05-14T06:10:25.712Z,18.74
2023-05-14T06:11:25.576Z,18.78
2023-05-14T06:12:25.633Z,18.82
2023-05-14T06:13:25.601Z,18.83
2023-05-14T06:14:25.630Z,18.86
2023-05-14T06:15:25.450Z,18.91
2023-05-14T06:16:25.862Z,18.98
2023-05-14T06:17:25.629Z,19.05
2023-05-14T06:18:25.951Z,19.15
2023-05-14T06:19:25.512Z,19.26
2023-05-14T06:20:25.680Z,19.39
2023-05-14T06:21:25.445Z,19.47
2023-05-14T06:22:25.562Z,19.49
2023-05-14T06:23:25.666Z,19.55
2023-05-14T06:24:25.471Z,19.57
2023-05-14T06:25:25.492Z,19.57
2023-05-14T06:26:25.330Z,19.57
2023-05-14T06:27:25.394Z,19.64
2023-05-14T06:28:25.356Z,19.66
2023-05-14T06:29:25.277Z,19.70
2023-05-14T06:30:25.466Z,19.79
2023-05-14T06:31:25.357Z,19.84
2023-05-14T06:32:25.390Z,19.96
2023-05-14T06:33:25.330Z,19.99
2023-05-14T06:34:25.565Z,20.07
2023-05-14T06:35:25.312Z,20.07
2023-05-14T06:36:25.197Z,20.15
2023-05-14T06:37:25.462Z,20.24
2023-05-14T06:38:25.245Z,20.39
2023-05-14T06:39:25.341Z,20.50
2023-05-14T06:40:25.356Z,20.55
2023-05-14T06:41:25.194Z,20.58
2023-05-14T06:42:25.148Z,20.66
2023-05-14T06:43:25.154Z,20.70
2023-05-14T06:44:25.215Z,20.58
2023-05-14T06:45:25.333Z,20.49
2023-05-14T06:46:25.093Z,20.50
2023-05-14T06:47:25.212Z,20.49
2023-05-14T06:48:25.187Z,20.52
2023-05-14T06:49:25.065Z,20.50
2023-05-14T06:50:25.264Z,20.53
2023-05-14T06:51:25.069Z,20.64
2023-05-14T06:52:25.011Z,20.86
2023-05-14T06:53:25.077Z,20.93
2023-05-14T06:54:25.030Z,20.95
2023-05-14T06:55:24.979Z,21.04
2023-05-14T06:56:25.037Z,21.13
2023-05-14T06:57:25.078Z,21.29
2023-05-14T06:58:24.985Z,21.43
2023-05-14T06:59:25.003Z,21.45
2023-05-14T07:00:25.231Z,21.53
2023-05-14T07:01:25.748Z,21.59
2023-05-14T07:02:24.958Z,21.58
2023-05-14T07:03:24.913Z,21.63
2023-05-14T07:04:24.930Z,21.66
2023-05-14T07:05:25.138Z,21.58
2023-05-14T07:06:24.918Z,21.47
2023-05-14T07:07:24.960Z,21.40
2023-05-14T07:08:24.852Z,21.45
2023-05-14T07:09:25.564Z,21.41
2023-05-14T07:10:25.049Z,21.43
2023-05-14T07:11:24.831Z,21.63
2023-05-14T07:12:24.790Z,21.77
2023-05-14T07:13:27.578Z,21.74
2023-05-14T07:14:24.779Z,21.68
2023-05-14T07:15:24.785Z,21.63
2023-05-14T07:16:24.924Z,21.78
2023-05-14T07:17:24.909Z,22.00
2023-05-14T07:18:24.895Z,22.22
2023-05-14T07:19:24.720Z,22.26
2023-05-14T07:20:24.858Z,22.38
2023-05-14T07:21:24.710Z,22.47
2023-05-14T07:22:24.691Z,22.59
2023-05-14T07:23:24.702Z,22.63
2023-05-14T07:24:24.762Z,22.65
2023-05-14T07:25:24.684Z,22.63
2023-05-14T07:26:24.686Z,22.63
2023-05-14T07:27:24.743Z,22.58
2023-05-14T07:28:24.651Z,22.59
2023-05-14T07:29:24.739Z,22.61
2023-05-14T07:30:24.999Z,22.68
2023-05-14T07:31:24.684Z,22.67
2023-05-14T07:32:24.659Z,22.59
2023-05-14T07:33:24.635Z,22.55
2023-05-14T07:34:24.773Z,22.51
2023-05-14T07:35:24.628Z,22.61
2023-05-14T07:36:24.591Z,22.77
2023-05-14T07:37:24.554Z,22.93
2023-05-14T07:38:24.546Z,23.08
2023-05-14T07:39:24.517Z,23.13
2023-05-14T07:40:24.768Z,23.11
2023-05-14T07:41:24.534Z,23.18
2023-05-14T07:42:35.364Z,23.26
2023-05-14T07:43:25.553Z,23.45
2023-05-14T07:44:24.636Z,23.66
2023-05-14T07:45:24.492Z,23.82
2023-05-14T07:46:24.477Z,23.79
2023-05-14T07:47:24.537Z,23.66
2023-05-14T07:48:24.443Z,23.74
2023-05-14T07:49:24.435Z,23.88
2023-05-14T07:50:24.687Z,23.86
2023-05-14T07:51:24.378Z,23.82
2023-05-14T07:52:24.359Z,23.66
2023-05-14T07:53:24.364Z,23.77
2023-05-14T07:54:24.353Z,23.92
2023-05-14T07:55:24.395Z,24.07
2023-05-14T07:56:24.413Z,24.10
2023-05-14T07:57:24.343Z,24.16
2023-05-14T07:58:24.320Z,24.16
2023-05-14T07:59:24.302Z,24.22
2023-05-14T08:00:24.510Z,24.40
2023-05-14T08:01:24.317Z,24.34
2023-05-14T08:02:24.323Z,24.21
2023-05-14T08:03:24.347Z,24.18
2023-05-14T08:04:24.342Z,24.31
2023-05-14T08:05:24.274Z,24.44
2023-05-14T08:06:24.326Z,24.56
2023-05-14T08:07:24.324Z,24.58
2023-05-14T08:08:24.256Z,24.55
2023-05-14T08:09:24.278Z,24.69
2023-05-14T08:10:24.416Z,24.75
2023-05-14T08:11:24.262Z,24.69
2023-05-14T08:12:24.233Z,24.71
2023-05-14T08:13:24.188Z,24.85
2023-05-14T08:14:24.226Z,24.97
2023-05-14T08:15:27.094Z,25.12
2023-05-14T08:16:24.160Z,25.30
2023-05-14T08:17:24.147Z,25.48
2023-05-14T08:18:24.100Z,25.71
2023-05-14T08:19:24.117Z,25.88
2023-05-14T08:20:24.341Z,26.03
2023-05-14T08:21:24.120Z,26.04
2023-05-14T08:22:24.112Z,26.11
2023-05-14T08:23:24.061Z,26.11
2023-05-14T08:24:24.071Z,26.01
2023-05-14T08:25:24.065Z,25.99
2023-05-14T08:26:24.057Z,26.13
2023-05-14T08:27:24.111Z,26.08
2023-05-14T08:28:23.989Z,26.07
2023-05-14T08:29:24.063Z,26.13
2023-05-14T08:30:24.308Z,26.37
2023-05-14T08:31:24.121Z,26.52
2023-05-14T08:32:24.381Z,26.67
2023-05-14T08:33:24.011Z,26.61
2023-05-14T08:34:24.004Z,26.60
2023-05-14T08:35:24.002Z,25.99
2023-05-14T08:36:24.027Z,26.24
2023-05-14T08:37:23.983Z,26.63
2023-05-14T08:38:23.930Z,26.70
2023-05-14T08:39:25.548Z,26.61
2023-05-14T08:40:24.313Z,26.74
2023-05-14T08:41:24.044Z,26.97
2023-05-14T08:42:23.854Z,27.19
2023-05-14T08:43:23.903Z,27.34
2023-05-14T08:44:23.874Z,27.43
2023-05-14T08:45:23.840Z,27.67
2023-05-14T08:46:23.842Z,27.64
2023-05-14T08:47:24.137Z,27.37
2023-05-14T08:48:23.912Z,27.48
2023-05-14T08:49:23.919Z,27.66
2023-05-14T08:50:23.945Z,27.64
2023-05-14T08:51:23.846Z,27.76
2023-05-14T08:52:23.976Z,27.76
2023-05-14T08:53:23.776Z,27.63
2023-05-14T08:54:25.377Z,27.66
2023-05-14T08:55:23.797Z,27.20
2023-05-14T08:56:23.802Z,27.18
2023-05-14T08:57:23.781Z,27.13
2023-05-14T08:58:23.698Z,27.29
2023-05-14T08:59:23.715Z,27.34
2023-05-14T09:00:24.012Z,26.91
2023-05-14T09:01:23.852Z,26.78
2023-05-14T09:02:23.784Z,26.85
2023-05-14T09:03:23.916Z,26.68
2023-05-14T09:04:23.661Z,26.71
2023-05-14T09:05:23.795Z,26.97
2023-05-14T09:06:23.635Z,27.25
2023-05-14T09:07:23.645Z,27.38
2023-05-14T09:08:23.611Z,27.71
2023-05-14T09:09:23.667Z,27.61
2023-05-14T09:10:23.917Z,27.75
2023-05-14T09:11:23.668Z,27.73
2023-05-14T09:12:23.598Z,27.67
2023-05-14T09:13:23.561Z,27.79
2023-05-14T09:14:23.548Z,27.82
2023-05-14T09:15:23.558Z,27.83
2023-05-14T09:16:23.584Z,27.93
2023-05-14T09:17:23.623Z,28.06
2023-05-14T09:18:23.435Z,28.20
2023-05-14T09:19:23.422Z,28.38
2023-05-14T09:20:23.825Z,28.33
2023-05-14T09:21:23.416Z,28.15
2023-05-14T09:22:23.542Z,27.79
2023-05-14T09:23:23.446Z,27.88
2023-05-14T09:24:23.427Z,28.16
2023-05-14T09:25:23.427Z,28.30
2023-05-14T09:26:23.397Z,28.56
2023-05-14T09:27:23.375Z,28.45
2023-05-14T09:28:23.403Z,28.37
2023-05-14T09:29:23.400Z,28.31
2023-05-14T09:30:23.842Z,28.19
2023-05-14T09:31:23.375Z,27.95
2023-05-14T09:32:23.395Z,27.91
2023-05-14T09:33:23.385Z,27.68
2023-05-14T09:34:23.322Z,28.15
2023-05-14T09:35:23.408Z,28.60
2023-05-14T09:36:23.289Z,29.21
2023-05-14T09:37:23.300Z,29.52
2023-05-14T09:38:23.321Z,29.73
2023-05-14T09:39:23.459Z,29.98
2023-05-14T09:40:23.997Z,30.11
2023-05-14T09:41:23.255Z,29.98
2023-05-14T09:42:23.213Z,29.89
2023-05-14T09:43:23.200Z,30.05
2023-05-14T09:44:23.317Z,30.21
2023-05-14T09:45:23.219Z,30.20
2023-05-14T09:46:23.295Z,29.83
2023-05-14T09:47:23.311Z,29.06
2023-05-14T09:48:23.215Z,29.34
2023-05-14T09:49:23.224Z,29.59
2023-05-14T09:50:23.389Z,30.08
2023-05-14T09:51:23.136Z,30.27
2023-05-14T09:52:23.163Z,30.63
2023-05-14T09:53:23.155Z,30.86
2023-05-14T09:54:23.143Z,31.29
2023-05-14T09:55:23.151Z,31.37
2023-05-14T09:56:23.120Z,31.33
2023-05-14T09:57:23.090Z,31.22
2023-05-14T09:58:23.070Z,31.15
2023-05-14T09:59:23.046Z,30.98
2023-05-14T10:00:23.351Z,30.85
2023-05-14T10:01:23.128Z,30.73
2023-05-14T10:02:23.043Z,31.11
2023-05-14T10:03:22.972Z,31.22
2023-05-14T10:04:23.005Z,31.39
2023-05-14T10:05:22.941Z,31.28
2023-05-14T10:06:23.028Z,31.32
2023-05-14T10:07:22.950Z,31.28
2023-05-14T10:08:22.937Z,31.70
2023-05-14T10:09:22.969Z,32.00
2023-05-14T10:10:23.344Z,32.12
2023-05-14T10:11:22.938Z,32.37
2023-05-14T10:12:22.899Z,32.49
2023-05-14T10:13:22.982Z,32.16
2023-05-14T10:14:22.883Z,32.35
2023-05-14T10:15:22.858Z,32.53
2023-05-14T10:16:22.827Z,32.51
2023-05-14T10:17:23.103Z,32.17
2023-05-14T10:18:22.799Z,32.12
2023-05-14T10:19:23.025Z,32.57
2023-05-14T10:20:22.987Z,32.98
2023-05-14T10:21:22.812Z,33.09
2023-05-14T10:22:22.757Z,33.31
2023-05-14T10:23:22.758Z,33.47
2023-05-14T10:24:22.749Z,33.65
2023-05-14T10:25:22.724Z,33.60
2023-05-14T10:26:23.939Z,33.54
2023-05-14T10:27:22.735Z,33.23
2023-05-14T10:28:22.781Z,33.20
2023-05-14T10:29:22.706Z,33.28
2023-05-14T10:30:23.017Z,33.45
2023-05-14T10:31:22.800Z,33.48
2023-05-14T10:32:22.705Z,33.57
2023-05-14T10:33:22.800Z,33.82
2023-05-14T10:34:22.689Z,33.75
2023-05-14T10:35:22.685Z,33.44
2023-05-14T10:36:22.688Z,33.23
2023-05-14T10:37:22.688Z,32.64
2023-05-14T10:38:22.652Z,32.59
2023-05-14T10:39:23.379Z,32.95
2023-05-14T10:40:22.933Z,33.26
2023-05-14T10:41:22.634Z,32.83
2023-05-14T10:42:22.652Z,33.00
2023-05-14T10:43:22.548Z,33.28
2023-05-14T10:44:22.583Z,32.97
2023-05-14T10:45:22.865Z,33.23
2023-05-14T10:46:22.552Z,33.63
2023-05-14T10:47:22.523Z,33.84
2023-05-14T10:48:22.632Z,33.91
2023-05-14T10:49:36.174Z,34.46
2023-05-14T10:50:23.969Z,34.55
2023-05-14T10:51:22.498Z,34.78
2023-05-14T10:52:22.506Z,34.65
2023-05-14T10:53:22.434Z,35.31
2023-05-14T10:54:22.508Z,36.08
2023-05-14T10:55:22.487Z,36.48
2023-05-14T10:56:22.421Z,36.55
2023-05-14T10:57:22.438Z,36.69
2023-05-14T10:58:22.499Z,36.81
2023-05-14T10:59:22.383Z,36.85
2023-05-14T11:00:22.567Z,36.22
2023-05-14T11:01:22.433Z,35.98
2023-05-14T11:02:22.462Z,36.57
2023-05-14T11:03:22.445Z,36.72
2023-05-14T11:04:22.418Z,36.84
2023-05-14T11:05:22.305Z,36.48
2023-05-14T11:06:22.487Z,36.35
2023-05-14T11:07:22.361Z,36.62
2023-05-14T11:08:25.547Z,36.81
2023-05-14T11:09:22.296Z,36.73
2023-05-14T11:10:22.813Z,36.88
2023-05-14T11:11:22.340Z,37.36
2023-05-14T11:12:22.268Z,37.43
2023-05-14T11:13:22.358Z,37.47
2023-05-14T11:14:22.257Z,37.54
2023-05-14T11:15:22.244Z,37.19
2023-05-14T11:16:23.828Z,36.43
2023-05-14T11:17:22.191Z,35.78
2023-05-14T11:18:22.196Z,36.18
2023-05-14T11:19:22.226Z,36.67
2023-05-14T11:20:22.365Z,36.85
2023-05-14T11:21:22.269Z,37.00
2023-05-14T11:22:22.167Z,37.01
2023-05-14T11:23:22.164Z,36.41
2023-05-14T11:24:22.225Z,35.66
2023-05-14T11:25:22.116Z,35.87
2023-05-14T11:26:22.157Z,35.42
2023-05-14T11:27:22.093Z,34.85
2023-05-14T11:28:22.147Z,34.07
2023-05-14T11:29:22.109Z,33.77
2023-05-14T11:30:22.257Z,33.50
2023-05-14T11:31:22.132Z,33.42
2023-05-14T11:32:22.138Z,33.20
2023-05-14T11:33:22.130Z,32.95
2023-05-14T11:34:22.084Z,33.03
2023-05-14T11:35:22.047Z,33.16
2023-05-14T11:36:22.077Z,33.45
2023-05-14T11:37:22.047Z,33.63
2023-05-14T11:38:22.050Z,32.72
2023-05-14T11:39:22.007Z,31.54
2023-05-14T11:40:22.220Z,30.70
2023-05-14T11:41:21.962Z,30.10
2023-05-14T11:42:21.988Z,30.74
2023-05-14T11:43:21.984Z,31.41
2023-05-14T11:44:21.981Z,31.37
2023-05-14T11:45:21.943Z,31.63
2023-05-14T11:46:22.071Z,32.12
2023-05-14T11:47:21.922Z,32.20
2023-05-14T11:48:21.942Z,32.71
2023-05-14T11:49:21.960Z,32.95
2023-05-14T11:50:22.122Z,31.74
2023-05-14T11:51:21.905Z,31.78
2023-05-14T11:52:22.111Z,31.30
2023-05-14T11:53:21.849Z,30.86
2023-05-14T11:54:21.877Z,30.81
2023-05-14T11:55:21.850Z,30.01
2023-05-14T11:56:21.858Z,30.16
2023-05-14T11:57:21.865Z,29.71
2023-05-14T11:58:21.852Z,29.32
2023-05-14T11:59:21.784Z,31.45
2023-05-14T12:00:22.253Z,33.36
2023-05-14T12:01:21.802Z,32.46
2023-05-14T12:02:21.861Z,30.73
2023-05-14T12:03:22.010Z,29.55
2023-05-14T12:04:21.855Z,28.97
2023-05-14T12:05:21.743Z,28.28
2023-05-14T12:06:21.806Z,30.73
2023-05-14T12:07:21.948Z,33.51
2023-05-14T12:08:21.751Z,34.76
2023-05-14T12:09:21.696Z,32.64
2023-05-14T12:10:21.918Z,30.78
2023-05-14T12:11:21.670Z,29.68
2023-05-14T12:12:21.675Z,28.78
2023-05-14T12:13:21.675Z,28.16
2023-05-14T12:14:21.649Z,32.59
2023-05-14T12:15:21.604Z,35.64
2023-05-14T12:16:21.648Z,36.89
2023-05-14T12:17:21.635Z,38.19
2023-05-14T12:18:24.961Z,38.87
2023-05-14T12:19:21.617Z,39.12
2023-05-14T12:20:21.716Z,39.42
2023-05-14T12:21:21.516Z,39.15
2023-05-14T12:22:21.614Z,38.66
2023-05-14T12:23:21.539Z,38.62
2023-05-14T12:24:21.547Z,38.01
2023-05-14T12:25:21.507Z,37.66
2023-05-14T12:26:21.467Z,37.48
2023-05-14T12:27:21.479Z,37.44
2023-05-14T12:28:21.717Z,37.71
2023-05-14T12:29:21.466Z,38.09
2023-05-14T12:30:22.214Z,38.23
2023-05-14T12:31:21.458Z,38.34
2023-05-14T12:32:21.472Z,38.77
2023-05-14T12:33:21.437Z,38.77
2023-05-14T12:34:21.454Z,38.54
2023-05-14T12:35:21.611Z,38.84
2023-05-14T12:36:22.401Z,38.54
2023-05-14T12:37:21.385Z,37.68
2023-05-14T12:38:21.761Z,37.25
2023-05-14T12:39:22.048Z,36.29
2023-05-14T12:40:21.441Z,36.18
2023-05-14T12:41:21.350Z,36.14
2023-05-14T12:42:21.301Z,36.78
2023-05-14T12:43:21.334Z,36.94
2023-05-14T12:44:21.314Z,37.47
2023-05-14T12:45:21.666Z,37.54
2023-05-14T12:46:21.379Z,37.38
2023-05-14T12:47:21.368Z,36.88
2023-05-14T12:48:21.264Z,36.72
2023-05-14T12:49:21.226Z,36.89
2023-05-14T12:50:21.304Z,37.16
2023-05-14T12:51:21.281Z,36.89
2023-05-14T12:52:36.047Z,36.72